Time;durP1;ratioP1;P1;durP2;ratioP2;P2;SDS_P1;SDS_P2;PMS_P1;PMS_P2;Temp;Humidity;BMP_temperature;BMP_pressure;BME280_temperature;BME280_humidity;BME280_pressure;Samples;Min_cycle;Max_cycle;Signal;HPM_P1;HPM_P2
2021/07/24 00:01:12;;;;;;;12.32;8.82;;;18.60;99.90;;;;;;5008604;28;20029;-62
2021/07/24 00:03:39;;;;;;;11.75;9.52;;;18.70;99.90;;;;;;5009196;28;20058;-61
2021/07/24 00:06:05;;;;;;;13.55;9.05;;;18.60;99.90;;;;;;5005406;28;20112;-62
2021/07/24 00:08:31;;;;;;;12.57;9.57;;;18.60;99.90;;;;;;5015530;28;20091;-63
2021/07/24 00:10:57;;;;;;;14.27;8.82;;;18.60;99.90;;;;;;5007252;28;20034;-61
2021/07/24 00:13:22;;;;;;;12.80;8.48;;;18.60;99.90;;;;;;5010382;28;20026;-63
2021/07/24 00:15:48;;;;;;;11.32;9.18;;;18.50;99.90;;;;;;5009973;28;20026;-63
2021/07/24 00:18:14;;;;;;;12.95;8.48;;;18.40;99.90;;;;;;5015455;28;20032;-64
2021/07/24 00:20:39;;;;;;;12.25;9.13;;;18.30;99.90;;;;;;5008812;28;20535;-64
2021/07/24 00:23:08;;;;;;;15.85;9.45;;;18.30;99.90;;;;;;5007892;28;20022;-63
2021/07/24 00:25:36;;;;;;;18.45;9.70;;;18.20;99.90;;;;;;5008932;28;20541;-63
2021/07/24 00:28:01;;;;;;;12.00;9.35;;;18.20;99.90;;;;;;5000419;28;20030;-62
2021/07/24 00:30:27;;;;;;;16.08;9.25;;;18.20;99.90;;;;;;5004914;28;20037;-63
2021/07/24 00:32:52;;;;;;;13.70;9.95;;;18.10;99.90;;;;;;5005908;28;20443;-63
2021/07/24 00:35:18;;;;;;;15.20;9.30;;;18.10;99.90;;;;;;5004994;28;20064;-62
2021/07/24 00:37:44;;;;;;;13.82;9.23;;;18.10;99.90;;;;;;5002398;28;20030;-63
2021/07/24 00:40:14;;;;;;;11.70;8.90;;;18.00;99.90;;;;;;5010145;28;20097;-64
2021/07/24 00:42:46;;;;;;;12.10;10.43;;;18.00;99.90;;;;;;5006082;28;20091;-63
2021/07/24 00:45:14;;;;;;;13.27;9.20;;;18.00;99.90;;;;;;5007461;28;20030;-62
2021/07/24 00:47:43;;;;;;;13.98;10.43;;;18.00;99.90;;;;;;5001500;28;20097;-62
2021/07/24 00:50:13;;;;;;;14.73;10.63;;;18.00;99.90;;;;;;5003025;28;20038;-60
2021/07/24 00:52:42;;;;;;;11.13;9.98;;;17.90;99.90;;;;;;5008505;28;20487;-62
2021/07/24 00:55:11;;;;;;;18.17;9.98;;;17.90;99.90;;;;;;5006872;28;20045;-62
2021/07/24 00:57:36;;;;;;;16.75;10.98;;;17.90;99.90;;;;;;5008704;28;20029;-63
2021/07/24 01:00:07;;;;;;;13.95;9.50;;;17.90;99.90;;;;;;5010064;28;20025;-62
2021/07/24 01:02:33;;;;;;;15.30;9.65;;;17.90;99.90;;;;;;5002979;28;20025;-62
2021/07/24 01:05:01;;;;;;;12.77;9.43;;;17.80;99.90;;;;;;5008996;28;20085;-63
2021/07/24 01:07:27;;;;;;;13.23;10.02;;;17.90;99.90;;;;;;5009682;28;20085;-60
2021/07/24 01:09:53;;;;;;;14.20;10.35;;;17.80;99.90;;;;;;5013953;28;20044;-61
2021/07/24 01:12:19;;;;;;;15.60;9.45;;;17.80;99.90;;;;;;5008179;28;20037;-62
2021/07/24 01:14:45;;;;;;;11.93;9.55;;;17.80;99.90;;;;;;5007821;28;20025;-62
2021/07/24 01:17:10;;;;;;;15.55;9.93;;;17.80;99.90;;;;;;5012138;28;20030;-62
2021/07/24 01:19:36;;;;;;;14.02;9.35;;;17.80;99.90;;;;;;5005806;28;20360;-61
2021/07/24 01:22:02;;;;;;;14.02;10.50;;;17.80;99.90;;;;;;5007883;28;20451;-62
2021/07/24 01:24:27;;;;;;;16.77;9.38;;;17.80;99.90;;;;;;5002412;28;22364;-61
2021/07/24 01:26:53;;;;;;;11.35;9.40;;;17.80;99.90;;;;;;5011212;28;20038;-62
2021/07/24 01:29:21;;;;;;;14.23;9.35;;;17.80;99.90;;;;;;5003214;28;20640;-62
2021/07/24 01:31:47;;;;;;;13.88;10.32;;;17.80;99.90;;;;;;5016839;28;20036;-61
2021/07/24 01:34:13;;;;;;;13.93;9.77;;;17.70;99.90;;;;;;5005131;28;20805;-61
2021/07/24 01:36:38;;;;;;;11.95;9.55;;;17.70;99.90;;;;;;5016428;28;20023;-61
2021/07/24 01:39:04;;;;;;;16.83;11.73;;;17.70;99.90;;;;;;5004155;28;20025;-60
2021/07/24 01:41:30;;;;;;;15.00;10.23;;;17.70;99.90;;;;;;5012895;28;20447;-62
2021/07/24 01:43:56;;;;;;;12.43;9.23;;;17.70;99.90;;;;;;5003953;28;20117;-61
2021/07/24 01:46:22;;;;;;;13.05;8.73;;;17.80;99.90;;;;;;5018926;28;20028;-61
2021/07/24 01:54:54;;;;;;;15.48;8.80;;;17.70;99.90;;;;;;5004735;28;20085;-61
2021/07/24 01:57:22;;;;;;;16.15;10.18;;;17.70;99.90;;;;;;5014696;28;20036;-61
2021/07/24 01:59:50;;;;;;;12.68;9.43;;;17.70;99.90;;;;;;5003912;28;20065;-61
2021/07/24 02:02:16;;;;;;;14.90;10.25;;;17.80;99.90;;;;;;5007066;28;20033;-62
2021/07/24 02:04:49;;;;;;;17.38;9.32;;;17.80;99.90;;;;;;5013329;28;20368;-62
2021/07/24 02:07:16;;;;;;;13.60;10.20;;;17.80;99.90;;;;;;5012872;28;20033;-62
2021/07/24 02:09:42;;;;;;;13.65;9.05;;;17.80;99.90;;;;;;5013113;28;20057;-60
2021/07/24 02:12:09;;;;;;;12.25;9.27;;;17.80;99.90;;;;;;5015613;28;20124;-61
2021/07/24 02:14:35;;;;;;;17.88;11.63;;;17.90;99.90;;;;;;5003189;28;20487;-62
2021/07/24 02:17:01;;;;;;;13.63;9.45;;;17.80;99.90;;;;;;5010468;28;20026;-62
2021/07/24 02:19:30;;;;;;;11.82;8.55;;;17.80;99.90;;;;;;5007630;28;20154;-61
2021/07/24 02:21:55;;;;;;;16.17;10.65;;;17.70;99.90;;;;;;5012498;28;20037;-61
2021/07/24 02:24:21;;;;;;;13.38;10.35;;;17.70;99.90;;;;;;5009465;28;20030;-62
2021/07/24 02:26:46;;;;;;;13.40;9.40;;;17.70;99.90;;;;;;5007461;28;20026;-60
2021/07/24 02:29:12;;;;;;;16.45;9.35;;;17.70;99.90;;;;;;5004087;28;20041;-61
2021/07/24 02:31:38;;;;;;;13.45;10.35;;;17.70;99.90;;;;;;5005529;28;20026;-62
2021/07/24 02:34:03;;;;;;;13.52;9.20;;;17.60;99.90;;;;;;5015334;28;20032;-59
2021/07/24 02:36:29;;;;;;;16.88;9.90;;;17.60;99.90;;;;;;5011256;28;21727;-61
2021/07/24 02:38:54;;;;;;;17.65;10.27;;;17.60;99.90;;;;;;5008647;28;20097;-61
2021/07/24 02:41:20;;;;;;;13.77;9.75;;;17.60;99.90;;;;;;5010169;28;20049;-61
2021/07/24 02:43:45;;;;;;;22.65;10.20;;;17.60;99.90;;;;;;5013328;28;20502;-61
2021/07/24 02:46:17;;;;;;;12.63;9.13;;;17.50;99.90;;;;;;5009493;28;20037;-62
2021/07/24 02:48:42;;;;;;;16.00;10.68;;;17.60;99.90;;;;;;5012543;28;20757;-60
2021/07/24 02:51:08;;;;;;;14.07;10.15;;;17.60;99.90;;;;;;5007424;28;20110;-62
2021/07/24 02:53:33;;;;;;;14.73;9.55;;;17.60;99.90;;;;;;5010494;28;20173;-61
2021/07/24 02:55:59;;;;;;;15.55;10.23;;;17.50;99.90;;;;;;5007372;28;20033;-61
2021/07/24 02:58:24;;;;;;;24.60;11.05;;;17.50;99.90;;;;;;5005216;28;20101;-61
2021/07/24 03:00:50;;;;;;;12.73;9.27;;;17.50;99.90;;;;;;5012202;28;20030;-62
2021/07/24 03:03:15;;;;;;;14.93;10.38;;;17.50;99.90;;;;;;5004485;28;20029;-61
2021/07/24 03:05:42;;;;;;;14.13;9.07;;;17.50;99.90;;;;;;5007748;28;20033;-61
2021/07/24 03:08:08;;;;;;;13.07;9.57;;;17.50;99.90;;;;;;5005362;28;20042;-62
2021/07/24 03:10:33;;;;;;;12.18;9.43;;;17.50;99.90;;;;;;5009229;28;20029;-62
2021/07/24 03:12:59;;;;;;;14.85;9.65;;;17.50;99.90;;;;;;5010559;28;20394;-61
2021/07/24 03:15:28;;;;;;;13.52;10.00;;;17.50;99.90;;;;;;4999431;28;20018;-61
2021/07/24 03:17:53;;;;;;;19.38;10.45;;;17.50;99.90;;;;;;5001438;28;20022;-61
2021/07/24 03:20:19;;;;;;;18.13;9.60;;;17.50;99.90;;;;;;5006037;28;20034;-61
2021/07/24 03:22:45;;;;;;;13.35;10.10;;;17.50;99.90;;;;;;5001537;28;20026;-60
2021/07/24 03:25:10;;;;;;;16.73;9.45;;;17.50;99.90;;;;;;5005734;28;20029;-60
2021/07/24 03:27:36;;;;;;;16.67;9.40;;;17.60;99.90;;;;;;5014958;28;20097;-62
2021/07/24 03:30:02;;;;;;;16.52;10.38;;;17.60;99.90;;;;;;4998958;28;20202;-61
2021/07/24 03:32:28;;;;;;;13.88;10.07;;;17.60;99.90;;;;;;5006796;28;20045;-61
2021/07/24 03:34:53;;;;;;;14.63;9.93;;;17.60;99.90;;;;;;5005914;28;20021;-61
2021/07/24 03:37:21;;;;;;;15.55;9.30;;;17.60;99.90;;;;;;5010825;28;20033;-62
2021/07/24 03:39:46;;;;;;;14.73;9.40;;;17.50;99.90;;;;;;5006575;28;20022;-61
2021/07/24 03:42:12;;;;;;;14.73;9.52;;;17.50;99.90;;;;;;5013392;28;20040;-59
2021/07/24 03:44:38;;;;;;;16.67;10.35;;;17.60;99.90;;;;;;5003373;28;20044;-61
2021/07/24 03:47:03;;;;;;;15.45;10.10;;;17.60;99.90;;;;;;5008375;28;20034;-62
2021/07/24 03:49:29;;;;;;;15.57;10.00;;;17.50;99.90;;;;;;5009745;28;20037;-63
2021/07/24 03:51:54;;;;;;;12.07;9.82;;;17.60;99.90;;;;;;5009559;28;20037;-61
2021/07/24 03:54:20;;;;;;;15.52;10.07;;;17.50;99.90;;;;;;5011792;28;20038;-60
2021/07/24 03:56:46;;;;;;;15.55;10.20;;;17.50;99.90;;;;;;5015951;28;20036;-61
2021/07/24 03:59:11;;;;;;;13.40;9.75;;;17.60;99.90;;;;;;5002537;28;20023;-61
2021/07/24 04:01:39;;;;;;;15.23;9.80;;;17.60;99.90;;;;;;5008695;28;20080;-61
2021/07/24 04:04:05;;;;;;;13.70;10.57;;;17.60;99.90;;;;;;5009760;28;20023;-60
2021/07/24 04:06:32;;;;;;;13.27;10.27;;;17.70;99.90;;;;;;5008542;28;20060;-62
2021/07/24 04:08:58;;;;;;;16.65;10.15;;;17.80;99.90;;;;;;5002547;28;20041;-61
2021/07/24 04:11:25;;;;;;;14.05;11.20;;;17.80;99.90;;;;;;5010605;28;20025;-62
2021/07/24 04:13:51;;;;;;;15.93;10.07;;;17.90;99.90;;;;;;5010007;28;20084;-61
2021/07/24 04:16:17;;;;;;;13.70;9.20;;;18.00;99.90;;;;;;5004061;28;20109;-61
2021/07/24 04:18:43;;;;;;;19.75;9.85;;;18.00;99.90;;;;;;5008388;28;20134;-61
2021/07/24 04:21:08;;;;;;;15.32;9.65;;;18.10;99.90;;;;;;5009052;28;20125;-61
2021/07/24 04:23:34;;;;;;;13.90;9.52;;;18.10;99.90;;;;;;5008507;28;20022;-62
2021/07/24 04:26:00;;;;;;;14.68;9.75;;;18.20;99.90;;;;;;5007944;28;20029;-61
2021/07/24 04:28:25;;;;;;;14.00;9.57;;;18.20;99.90;;;;;;5005637;28;20023;-61
2021/07/24 04:30:51;;;;;;;16.02;9.77;;;18.30;99.90;;;;;;5006391;28;20018;-62
2021/07/24 04:33:16;;;;;;;14.73;9.65;;;18.30;99.90;;;;;;5003647;28;20443;-62
2021/07/24 04:35:47;;;;;;;15.50;10.02;;;18.30;99.90;;;;;;5012181;28;20453;-62
2021/07/24 04:38:13;;;;;;;13.02;8.80;;;18.40;99.90;;;;;;5001242;28;20567;-62
2021/07/24 04:40:39;;;;;;;13.45;8.88;;;18.50;99.90;;;;;;5003590;28;20030;-62
2021/07/24 04:43:04;;;;;;;14.18;9.32;;;18.60;99.90;;;;;;5008617;28;20088;-60
2021/07/24 04:45:30;;;;;;;12.73;8.75;;;18.80;99.90;;;;;;5010228;28;20040;-61
2021/07/24 04:47:55;;;;;;;13.23;9.60;;;18.90;99.90;;;;;;5006814;28;20041;-61
2021/07/24 04:50:21;;;;;;;15.60;9.60;;;19.00;99.90;;;;;;5010274;28;20038;-62
2021/07/24 04:52:46;;;;;;;17.83;10.57;;;19.00;99.90;;;;;;5007210;28;20034;-59
2021/07/24 04:55:12;;;;;;;16.92;9.32;;;19.00;99.90;;;;;;5012348;28;20029;-62
2021/07/24 04:57:38;;;;;;;14.77;9.57;;;19.20;99.90;;;;;;5008297;28;20034;-62
2021/07/24 05:00:07;;;;;;;17.98;8.65;;;19.40;99.90;;;;;;5004683;28;20033;-61
2021/07/24 05:02:32;;;;;;;14.73;9.32;;;19.50;99.90;;;;;;5008322;28;20108;-62
2021/07/24 05:04:58;;;;;;;16.90;9.20;;;19.50;99.90;;;;;;5008480;28;20058;-61
2021/07/24 05:07:25;;;;;;;12.85;8.45;;;19.50;99.90;;;;;;5006967;28;20045;-62
2021/07/24 05:09:50;;;;;;;12.40;8.43;;;19.60;99.90;;;;;;5006725;28;21187;-62
2021/07/24 05:12:16;;;;;;;10.20;9.02;;;19.70;99.90;;;;;;5012423;28;20059;-60
2021/07/24 05:14:41;;;;;;;13.20;9.10;;;19.80;99.90;;;;;;5000501;28;20388;-62
2021/07/24 05:17:12;;;;;;;17.67;9.60;;;19.90;99.90;;;;;;5007844;28;20029;-62
2021/07/24 05:19:46;;;;;;;15.48;9.63;;;19.90;99.90;;;;;;5014444;28;20034;-61
2021/07/24 05:22:13;;;;;;;17.83;9.02;;;19.90;99.90;;;;;;5012992;28;20022;-62
2021/07/24 05:24:43;;;;;;;19.25;9.00;;;19.90;99.90;;;;;;5004163;28;20062;-62
2021/07/24 05:27:13;;;;;;;12.73;8.80;;;19.90;99.90;;;;;;5009015;28;20030;-62
2021/07/24 05:29:40;;;;;;;17.58;9.77;;;20.00;99.90;;;;;;5008527;28;20525;-60
2021/07/24 05:32:06;;;;;;;11.82;9.65;;;20.00;99.90;;;;;;5008396;28;20037;-61
2021/07/24 05:34:31;;;;;;;10.88;8.25;;;20.00;99.90;;;;;;5004545;28;20495;-61
2021/07/24 05:36:57;;;;;;;12.52;9.25;;;20.10;99.90;;;;;;5010571;28;20040;-62
2021/07/24 05:39:22;;;;;;;15.93;9.43;;;20.10;99.90;;;;;;5006201;28;20021;-62
2021/07/24 05:41:48;;;;;;;14.07;8.68;;;20.20;99.90;;;;;;5015601;28;20044;-61
2021/07/24 05:44:17;;;;;;;10.85;8.75;;;20.20;99.90;;;;;;5004486;28;20049;-62
2021/07/24 05:46:46;;;;;;;11.73;9.43;;;20.30;99.90;;;;;;5004864;28;20100;-61
2021/07/24 05:49:11;;;;;;;16.15;10.10;;;20.50;99.90;;;;;;5005780;28;20129;-62
2021/07/24 05:51:40;;;;;;;12.82;9.05;;;20.70;99.90;;;;;;5011143;28;20120;-62
2021/07/24 05:54:09;;;;;;;11.13;8.90;;;20.90;99.90;;;;;;5013042;28;20510;-62
2021/07/24 05:56:38;;;;;;;13.27;8.15;;;21.00;99.90;;;;;;5014987;28;20522;-62
2021/07/24 05:59:04;;;;;;;12.95;8.73;;;21.30;99.90;;;;;;5015842;28;20034;-62
2021/07/24 06:01:29;;;;;;;13.30;8.52;;;21.60;99.30;;;;;;5006586;28;20061;-62
2021/07/24 06:03:55;;;;;;;18.92;8.65;;;22.00;98.80;;;;;;5006272;28;20069;-64
2021/07/24 06:06:21;;;;;;;11.55;7.97;;;22.40;97.40;;;;;;5007481;28;20034;-62
2021/07/24 06:08:46;;;;;;;13.35;8.30;;;22.80;96.90;;;;;;5013455;28;20042;-61
2021/07/24 06:11:12;;;;;;;11.35;8.23;;;23.10;97.00;;;;;;5008099;28;20038;-62
2021/07/24 06:13:37;;;;;;;13.82;7.68;;;23.30;96.10;;;;;;5016171;28;20026;-62
2021/07/24 06:16:03;;;;;;;13.75;8.45;;;23.30;95.80;;;;;;5013028;28;20033;-62
2021/07/24 06:18:29;;;;;;;12.57;7.75;;;23.50;95.30;;;;;;5007480;28;20124;-62
2021/07/24 06:20:54;;;;;;;12.35;8.18;;;23.60;94.60;;;;;;5012078;28;20101;-62
2021/07/24 06:23:20;;;;;;;8.73;7.22;;;23.60;94.50;;;;;;5011421;28;20029;-62
2021/07/24 06:25:47;;;;;;;10.50;7.38;;;23.50;94.80;;;;;;5010927;28;20018;-62
2021/07/24 06:28:13;;;;;;;12.55;9.15;;;23.40;95.00;;;;;;5009715;28;20025;-62
2021/07/24 06:30:39;;;;;;;10.02;8.10;;;23.00;95.50;;;;;;5010165;28;20506;-62
2021/07/24 06:33:05;;;;;;;27.45;8.85;;;22.90;95.80;;;;;;5011806;28;20437;-63
2021/07/24 06:35:32;;;;;;;10.50;7.50;;;22.90;96.20;;;;;;5016382;28;20113;-60
2021/07/24 06:37:57;;;;;;;16.70;9.20;;;23.60;95.70;;;;;;5010455;28;20057;-62
2021/07/24 06:40:23;;;;;;;14.07;8.13;;;24.60;94.20;;;;;;5008575;28;20061;-63
2021/07/24 06:42:49;;;;;;;12.93;8.20;;;25.30;93.00;;;;;;5010254;28;20037;-62
2021/07/24 06:45:14;;;;;;;10.57;7.70;;;26.10;91.10;;;;;;5010381;28;20022;-62
2021/07/24 06:47:40;;;;;;;12.93;7.60;;;25.50;91.30;;;;;;5006995;28;20090;-63
2021/07/24 06:50:06;;;;;;;10.20;8.25;;;25.40;92.60;;;;;;5007309;28;20037;-62
2021/07/24 06:52:32;;;;;;;14.45;8.07;;;25.70;92.20;;;;;;5010446;28;20127;-63
2021/07/24 06:54:57;;;;;;;9.15;7.75;;;26.30;91.90;;;;;;5009969;28;20053;-63
2021/07/24 06:57:23;;;;;;;9.52;7.57;;;27.60;91.30;;;;;;5008655;28;20034;-62
2021/07/24 06:59:49;;;;;;;16.13;7.82;;;27.90;86.80;;;;;;4990121;28;20034;-63
2021/07/24 07:02:14;;;;;;;11.27;7.18;;;28.50;86.40;;;;;;4993977;28;20594;-63
2021/07/24 07:04:40;;;;;;;8.75;7.28;;;29.60;85.20;;;;;;5012789;28;20087;-63
2021/07/24 07:07:09;;;;;;;12.75;6.85;;;30.40;82.10;;;;;;5001424;28;20026;-63
2021/07/24 07:09:35;;;;;;;11.02;7.40;;;30.10;81.50;;;;;;5007243;28;20120;-63
2021/07/24 07:12:01;;;;;;;9.55;8.02;;;29.70;79.70;;;;;;5009146;28;20109;-63
2021/07/24 07:14:27;;;;;;;15.43;7.95;;;28.80;82.60;;;;;;5009803;28;20072;-62
2021/07/24 07:16:53;;;;;;;14.23;7.88;;;28.00;83.50;;;;;;5007352;28;20029;-63
2021/07/24 07:19:20;;;;;;;11.07;7.78;;;27.70;84.90;;;;;;5003007;28;20088;-63
2021/07/24 07:21:45;;;;;;;14.10;7.65;;;28.10;85.10;;;;;;5011034;28;20034;-63
2021/07/24 07:24:11;;;;;;;12.80;7.75;;;29.20;82.90;;;;;;5003455;28;20507;-63
2021/07/24 07:26:37;;;;;;;9.35;7.47;;;29.60;80.20;;;;;;5013390;28;20081;-63
2021/07/24 07:29:03;;;;;;;9.00;7.60;;;29.80;79.80;;;;;;5004748;28;20030;-63
2021/07/24 07:31:33;;;;;;;13.73;7.35;;;30.50;79.20;;;;;;5006350;28;20435;-63
2021/07/24 07:34:00;;;;;;;10.70;7.40;;;31.10;77.80;;;;;;5010567;28;20088;-63
2021/07/24 07:36:26;;;;;;;12.07;7.88;;;31.10;77.20;;;;;;5010572;28;20036;-63
2021/07/24 07:38:52;;;;;;;10.48;7.63;;;31.20;75.40;;;;;;5005760;28;20104;-63
2021/07/24 07:41:18;;;;;;;8.45;7.55;;;30.70;75.80;;;;;;5003533;28;20491;-63
2021/07/24 07:43:44;;;;;;;8.82;7.20;;;30.50;76.20;;;;;;5016494;28;20037;-63
2021/07/24 07:46:10;;;;;;;9.07;7.90;;;30.50;76.60;;;;;;5009232;28;20034;-63
2021/07/24 07:48:37;;;;;;;9.05;7.50;;;30.50;77.60;;;;;;4999279;28;20030;-63
2021/07/24 07:51:04;;;;;;;11.75;8.60;;;30.50;77.50;;;;;;5010610;28;20491;-63
2021/07/24 07:53:30;;;;;;;12.27;7.70;;;30.20;77.50;;;;;;5006596;28;21553;-63
2021/07/24 07:55:56;;;;;;;11.88;7.55;;;30.00;76.20;;;;;;5007581;28;20034;-63
2021/07/24 07:58:23;;;;;;;12.90;7.78;;;29.80;76.90;;;;;;5011003;28;20501;-63
2021/07/24 08:00:49;;;;;;;11.82;8.43;;;29.50;76.90;;;;;;4993167;28;20050;-63
2021/07/24 08:03:15;;;;;;;11.50;8.43;;;29.40;78.30;;;;;;5008870;28;20030;-62
2021/07/24 08:05:40;;;;;;;13.43;8.68;;;29.10;79.80;;;;;;5013378;28;20044;-62
2021/07/24 08:08:06;;;;;;;10.55;7.88;;;28.90;79.00;;;;;;5011311;28;20026;-63
2021/07/24 08:10:34;;;;;;;12.57;7.82;;;28.50;81.60;;;;;;5007936;28;20022;-62
2021/07/24 08:13:10;;;;;;;12.15;8.55;;;28.30;82.50;;;;;;5009874;28;20033;-63
2021/07/24 08:15:35;;;;;;;8.80;7.82;;;27.80;82.30;;;;;;5008987;28;20033;-63
2021/07/24 08:18:01;;;;;;;12.77;9.10;;;27.80;83.80;;;;;;5006508;28;20018;-63
2021/07/24 08:20:26;;;;;;;11.60;9.23;;;27.50;82.20;;;;;;5005466;28;20075;-63
2021/07/24 08:22:52;;;;;;;13.02;8.20;;;27.30;84.30;;;;;;5006108;28;20025;-63
2021/07/24 08:25:18;;;;;;;11.02;8.88;;;27.40;86.40;;;;;;5011038;28;20402;-61
2021/07/24 08:27:43;;;;;;;12.57;8.75;;;27.70;85.00;;;;;;5003682;28;20479;-63
2021/07/24 08:30:09;;;;;;;15.52;9.07;;;27.70;84.40;;;;;;5002473;28;20025;-63
2021/07/24 08:32:35;;;;;;;12.18;8.15;;;27.80;83.60;;;;;;5008381;28;20036;-62
2021/07/24 08:35:00;;;;;;;11.45;8.82;;;27.60;83.90;;;;;;5010202;28;20018;-63
2021/07/24 08:37:26;;;;;;;9.95;8.40;;;27.30;84.00;;;;;;5009131;28;20228;-62
2021/07/24 08:39:51;;;;;;;12.30;8.57;;;27.10;85.30;;;;;;5003854;28;20022;-63
2021/07/24 08:42:37;;;;;;;12.80;7.47;;;27.50;85.20;;;;;;5008014;28;20458;-63
2021/07/24 08:45:03;;;;;;;11.13;9.10;;;27.70;85.60;;;;;;5005880;28;20026;-62
2021/07/24 08:47:30;;;;;;;13.45;8.38;;;27.50;86.50;;;;;;5006932;28;20057;-63
2021/07/24 08:50:06;;;;;;;11.32;8.45;;;27.40;86.30;;;;;;5007726;28;20030;-62
2021/07/24 08:52:33;;;;;;;10.45;8.80;;;27.40;88.40;;;;;;5010095;28;20037;-63
2021/07/24 08:55:00;;;;;;;11.68;9.02;;;27.30;88.90;;;;;;5008266;28;20057;-63
2021/07/24 08:57:35;;;;;;;13.35;9.45;;;27.10;88.60;;;;;;5012609;28;20502;-63
2021/07/24 09:00:08;;;;;;;11.95;9.35;;;27.00;90.10;;;;;;4991184;28;20036;-63
2021/07/24 09:02:37;;;;;;;13.32;8.18;;;27.00;88.60;;;;;;5009038;28;20089;-63
2021/07/24 09:05:05;;;;;;;17.10;9.27;;;26.90;90.00;;;;;;5007798;28;20058;-62
2021/07/24 09:07:37;;;;;;;12.40;8.77;;;26.80;90.60;;;;;;5006126;28;20033;-63
2021/07/24 09:10:02;;;;;;;13.02;9.32;;;26.60;90.90;;;;;;5007027;28;20029;-64
2021/07/24 09:12:28;;;;;;;11.45;8.77;;;26.50;91.10;;;;;;5012091;28;20029;-62
2021/07/24 09:14:55;;;;;;;14.55;9.50;;;26.20;89.80;;;;;;5007870;28;20033;-62
2021/07/24 09:17:21;;;;;;;15.27;8.93;;;26.20;90.40;;;;;;5016786;28;20025;-62
2021/07/24 09:19:50;;;;;;;12.95;9.48;;;26.10;90.00;;;;;;5007971;28;20551;-63
2021/07/24 09:22:28;;;;;;;15.75;9.23;;;25.90;89.10;;;;;;5011828;28;20022;-63
2021/07/24 09:25:17;;;;;;;14.20;9.73;;;25.80;90.00;;;;;;5004511;28;20030;-62
2021/07/24 09:27:46;;;;;;;14.15;9.50;;;25.90;90.00;;;;;;5012636;28;20037;-63
2021/07/24 09:30:24;;;;;;;15.07;9.80;;;25.90;90.10;;;;;;5004870;28;20046;-62
2021/07/24 09:33:11;;;;;;;16.58;9.55;;;26.00;90.10;;;;;;5011957;28;20176;-63
2021/07/24 09:35:50;;;;;;;17.60;10.30;;;26.30;90.90;;;;;;5008464;28;20571;-62
2021/07/24 09:38:29;;;;;;;16.58;10.32;;;26.30;89.90;;;;;;5011844;28;20083;-61
2021/07/24 09:40:59;;;;;;;18.98;10.23;;;26.20;87.30;;;;;;5007780;28;20051;-62
2021/07/24 09:43:35;;;;;;;15.82;9.75;;;26.10;87.90;;;;;;5018903;28;20163;-62
2021/07/24 09:46:17;;;;;;;10.75;9.63;;;25.80;88.80;;;;;;5006162;28;20061;-62
2021/07/24 09:48:53;;;;;;;14.65;10.50;;;25.70;90.60;;;;;;5001016;28;20555;-63
2021/07/24 09:51:33;;;;;;;14.82;10.40;;;25.50;91.10;;;;;;5013072;28;20046;-62
2021/07/24 09:53:58;;;;;;;13.82;9.80;;;25.30;90.20;;;;;;5002633;28;20026;-61
2021/07/24 09:56:42;;;;;;;13.82;10.45;;;25.20;90.40;;;;;;5012502;28;20435;-62
2021/07/24 09:59:30;;;;;;;13.98;9.90;;;25.30;91.30;;;;;;5003852;28;20041;-63
2021/07/24 10:02:06;;;;;;;14.15;9.60;;;25.40;90.70;;;;;;4985566;28;20061;-62
2021/07/24 10:04:33;;;;;;;19.65;10.98;;;25.20;90.70;;;;;;5008176;28;20033;-63
2021/07/24 10:07:04;;;;;;;13.95;10.50;;;25.30;90.80;;;;;;5011005;28;20120;-61
2021/07/24 10:09:34;;;;;;;21.27;10.70;;;25.40;90.90;;;;;;5004933;28;20037;-62
2021/07/24 10:12:04;;;;;;;15.73;10.20;;;25.10;91.20;;;;;;5002278;28;20447;-62
2021/07/24 10:14:30;;;;;;;14.25;9.57;;;24.90;91.50;;;;;;5015124;28;20066;-62
2021/07/24 10:16:57;;;;;;;16.75;10.43;;;24.60;91.90;;;;;;5004414;28;20050;-63
2021/07/24 10:19:24;;;;;;;17.35;10.52;;;24.50;91.60;;;;;;5005388;28;20030;-62
2021/07/24 10:21:51;;;;;;;13.85;9.77;;;24.30;92.50;;;;;;5005949;28;20665;-61
2021/07/24 10:24:16;;;;;;;14.93;10.23;;;24.30;93.30;;;;;;5000774;28;20025;-61
2021/07/24 10:27:02;;;;;;;13.55;10.30;;;24.30;92.90;;;;;;5002691;28;20852;-61
2021/07/24 10:29:33;;;;;;;21.77;11.32;;;24.30;93.10;;;;;;5001342;28;20034;-63
2021/07/24 10:32:04;;;;;;;13.48;10.48;;;24.30;93.50;;;;;;5005582;28;20031;-62
2021/07/24 10:34:32;;;;;;;20.25;10.93;;;24.30;93.50;;;;;;5002904;28;20252;-61
2021/07/24 10:36:57;;;;;;;18.95;10.77;;;24.10;93.60;;;;;;5003088;28;20026;-61
2021/07/24 10:39:23;;;;;;;13.88;9.25;;;24.20;94.80;;;;;;5004094;28;20022;-62
2021/07/24 10:42:10;;;;;;;17.85;10.95;;;24.10;94.60;;;;;;4998238;28;20031;-62
2021/07/24 10:44:42;;;;;;;17.60;11.57;;;24.00;94.60;;;;;;4998688;28;20499;-62
2021/07/24 10:47:16;;;;;;;17.47;10.40;;;24.00;95.50;;;;;;4997987;28;20088;-63
2021/07/24 10:49:45;;;;;;;20.08;10.43;;;24.10;94.90;;;;;;5003694;28;20038;-62
2021/07/24 10:52:11;;;;;;;18.83;10.95;;;23.90;95.00;;;;;;4998982;28;20120;-61
2021/07/24 10:55:12;;;;;;;18.38;12.25;;;23.80;96.00;;;;;;5002149;28;20020;-62
2021/07/24 10:57:47;;;;;;;16.27;11.40;;;23.50;97.20;;;;;;4992919;28;20545;-63
2021/07/24 11:00:18;;;;;;;21.65;12.05;;;23.30;99.00;;;;;;5002935;28;20078;-63
2021/07/24 11:02:48;;;;;;;24.15;12.60;;;23.10;98.40;;;;;;4981102;28;20054;-63
2021/07/24 11:05:27;;;;;;;22.25;12.70;;;22.80;99.90;;;;;;5014603;28;20030;-62
2021/07/24 11:07:53;;;;;;;21.73;13.20;;;22.70;99.90;;;;;;4997689;28;20023;-62
2021/07/24 11:10:19;;;;;;;22.85;11.93;;;22.40;99.90;;;;;;4998745;28;20040;-62
2021/07/24 11:12:46;;;;;;;23.20;14.13;;;22.20;99.90;;;;;;4995262;28;20018;-63
2021/07/24 11:15:19;;;;;;;18.10;13.80;;;22.00;99.90;;;;;;4999041;28;20026;-61
2021/07/24 11:18:05;;;;;;;;;;;21.80;99.90;;;;;;5001722;28;20022;-62
2021/07/24 11:20:45;;;;;;;21.80;13.18;;;21.60;99.90;;;;;;5002687;28;19917;-62
2021/07/24 11:23:10;;;;;;;24.38;13.95;;;21.40;99.90;;;;;;4997593;28;20061;-61
2021/07/24 11:25:37;;;;;;;17.75;13.57;;;21.20;99.90;;;;;;4997785;28;20092;-62
2021/07/24 11:28:03;;;;;;;20.73;15.18;;;21.00;99.90;;;;;;4996270;28;20034;-62
2021/07/24 11:30:29;;;;;;;18.20;14.20;;;20.90;99.90;;;;;;4993125;28;20034;-60
2021/07/24 11:32:56;;;;;;;20.77;15.45;;;20.90;99.90;;;;;;4998525;28;20539;-62
2021/07/24 11:35:27;;;;;;;20.05;14.25;;;20.80;99.90;;;;;;5001263;28;20042;-62
2021/07/24 11:37:53;;;;;;;20.08;15.77;;;20.90;99.90;;;;;;5004234;28;20026;-63
2021/07/24 11:40:23;;;;;;;21.42;16.75;;;20.90;99.90;;;;;;4999614;28;20029;-62
2021/07/24 11:43:02;;;;;;;24.58;16.65;;;20.80;99.90;;;;;;5011871;28;20045;-63
2021/07/24 11:45:29;;;;;;;20.55;15.70;;;20.80;99.90;;;;;;5002310;28;20037;-63
2021/07/24 11:48:18;;;;;;;23.58;15.70;;;20.70;99.90;;;;;;5003213;28;20113;-62
2021/07/24 11:50:45;;;;;;;21.90;16.50;;;20.50;99.90;;;;;;5002153;28;20057;-62
2021/07/24 11:53:11;;;;;;;21.80;15.68;;;20.50;99.90;;;;;;5002569;28;20585;-62
2021/07/24 11:55:39;;;;;;;21.58;15.23;;;20.50;99.90;;;;;;4996988;28;20034;-62
2021/07/24 11:58:09;;;;;;;19.88;16.42;;;20.40;99.90;;;;;;5000176;28;20028;-62
2021/07/24 12:00:50;;;;;;;19.52;15.15;;;20.30;99.90;;;;;;4997863;28;20112;-63
2021/07/24 12:03:19;;;;;;;23.17;16.05;;;20.40;99.90;;;;;;5003248;28;20026;-62
2021/07/24 12:05:47;;;;;;;21.00;15.30;;;20.50;99.90;;;;;;5000143;28;20029;-63
2021/07/24 12:08:13;;;;;;;18.95;15.75;;;20.50;99.90;;;;;;5002319;28;20026;-63
2021/07/24 12:10:43;;;;;;;18.40;15.45;;;20.50;99.90;;;;;;5000887;28;20402;-62
2021/07/24 12:13:13;;;;;;;27.17;16.25;;;20.50;99.90;;;;;;5005731;28;20037;-62
2021/07/24 12:16:05;;;;;;;25.83;15.48;;;20.60;99.90;;;;;;5004747;28;20161;-63
2021/07/24 12:18:47;;;;;;;24.05;16.80;;;20.50;99.90;;;;;;5006468;28;20097;-63
2021/07/24 12:21:15;;;;;;;29.67;19.67;;;20.40;99.90;;;;;;5007853;28;20066;-62
2021/07/24 12:24:02;;;;;;;25.55;16.77;;;20.40;99.90;;;;;;4977178;28;20058;-63
2021/07/24 12:26:33;;;;;;;34.97;17.65;;;20.40;99.90;;;;;;4982396;28;20070;-62
2021/07/24 12:29:00;;;;;;;39.10;18.35;;;20.50;99.90;;;;;;4976367;28;20266;-62
2021/07/24 12:31:30;;;;;;;22.27;15.57;;;20.40;99.90;;;;;;4981510;28;20037;-62
2021/07/24 12:34:00;;;;;;;20.77;17.20;;;20.40;99.90;;;;;;4972690;28;20404;-61
2021/07/24 12:36:27;;;;;;;21.25;18.08;;;20.40;99.90;;;;;;4975158;28;20023;-62
2021/07/24 12:38:54;;;;;;;21.83;16.23;;;20.30;99.90;;;;;;4977514;28;20037;-62
2021/07/24 12:41:31;;;;;;;20.95;16.92;;;20.30;99.90;;;;;;4980662;28;20022;-62
2021/07/24 12:44:04;;;;;;;20.55;15.52;;;20.30;99.90;;;;;;4979028;28;20022;-62